Time;durP1;ratioP1;P1;durP2;ratioP2;P2;SDS_P1;SDS_P2;PMS_P1;PMS_P2;Temp;Humidity;BMP_temperature;BMP_pressure;BME280_temperature;BME280_humidity;BME280_pressure;Samples;Min_cycle;Max_cycle;Signal;HPM_P1;HPM_P2
2022/05/03 00:02:22;;;;;;;7.50;6.68;;;13.10;81.30;;;11.68;90.58;95810.72;4858985;28;20319;-67
2022/05/03 00:05:10;;;;;;;7.82;7.00;;;13.00;80.90;;;11.63;88.83;95798.16;4802515;28;20330;-67
2022/05/03 00:08:08;;;;;;;7.38;6.50;;;12.90;80.70;;;11.64;89.28;95797.97;4875906;28;20039;-67
2022/05/03 00:11:13;;;;;;;7.45;6.50;;;13.00;80.70;;;11.64;89.90;95795.31;4835611;28;20242;-68
2022/05/03 00:13:46;;;;;;;7.60;6.30;;;13.00;80.50;;;11.60;89.43;95796.75;4855568;28;20436;-67
2022/05/03 00:16:15;;;;;;;7.57;6.85;;;13.00;80.60;;;11.61;89.00;95805.47;4868748;28;20377;-67
2022/05/03 00:18:42;;;;;;;8.20;7.40;;;13.00;80.60;;;11.62;89.40;95797.34;4831506;28;20369;-68
2022/05/03 00:21:10;;;;;;;7.72;6.93;;;13.10;80.80;;;11.62;88.64;95786.00;4826137;28;20505;-67
2022/05/03 00:23:36;;;;;;;8.65;7.43;;;13.10;80.30;;;11.63;88.90;95788.44;4826250;28;20564;-68
2022/05/03 00:26:02;;;;;;;8.52;7.63;;;13.10;80.40;;;11.63;88.70;95785.78;4828041;28;20373;-67
2022/05/03 00:28:28;;;;;;;8.95;8.05;;;13.10;80.60;;;11.64;88.81;95784.78;4833777;28;20313;-67
2022/05/03 00:30:55;;;;;;;9.50;8.25;;;13.10;80.90;;;11.65;89.76;95786.41;4843973;28;20355;-67
2022/05/03 00:33:21;;;;;;;9.75;8.82;;;13.10;81.20;;;11.64;89.44;95784.78;4832047;28;20357;-67
2022/05/03 00:35:48;;;;;;;10.82;8.82;;;13.10;81.30;;;11.63;89.92;95785.78;4844002;28;20826;-67
2022/05/03 00:38:15;;;;;;;9.85;8.77;;;13.10;81.60;;;11.64;90.10;95778.72;4859903;28;20489;-67
2022/05/03 00:40:46;;;;;;;12.32;9.52;;;13.10;81.60;;;11.62;90.89;95781.53;4846967;28;20603;-67
2022/05/03 00:43:23;;;;;;;9.60;8.60;;;13.00;81.90;;;11.61;91.35;95776.47;4830363;28;20359;-67
2022/05/03 00:45:58;;;;;;;9.95;8.95;;;13.00;81.90;;;11.60;91.32;95762.50;4844593;28;20701;-68
2022/05/03 00:48:47;;;;;;;10.57;8.75;;;13.00;81.90;;;11.59;92.55;95771.41;4840104;28;20670;-66
2022/05/03 00:51:16;;;;;;;11.35;9.30;;;13.00;82.00;;;11.59;91.16;95765.34;4833451;28;20405;-65
2022/05/03 00:54:24;;;;;;;9.60;8.60;;;13.00;81.90;;;11.58;91.88;95769.78;4812547;28;20702;-65
2022/05/03 00:57:20;;;;;;;10.27;9.25;;;13.00;81.90;;;11.55;92.71;95766.75;4831593;28;20301;-66
2022/05/03 01:00:13;;;;;;;11.10;10.00;;;12.90;82.00;;;11.54;92.30;95763.31;4853007;28;20439;-66
2022/05/03 01:03:10;;;;;;;12.07;9.88;;;12.90;82.00;;;11.49;92.13;95763.09;4812256;28;20391;-66
2022/05/03 01:06:18;;;;;;;11.15;10.05;;;12.90;81.70;;;11.48;92.15;95765.94;4854791;28;20361;-66
2022/05/03 01:09:11;;;;;;;12.05;10.57;;;12.90;81.70;;;11.44;91.97;95768.16;4812449;29;20473;-66
2022/05/03 01:12:20;;;;;;;12.18;10.85;;;12.80;81.70;;;11.41;91.68;95773.84;4850334;28;20335;-66
2022/05/03 01:15:21;;;;;;;12.85;11.55;;;12.80;81.70;;;11.39;91.76;95770.59;4862624;28;20362;-66
2022/05/03 01:18:15;;;;;;;11.70;10.50;;;12.80;81.90;;;11.35;91.94;95766.75;4842521;28;20872;-67
2022/05/03 01:20:55;;;;;;;14.60;11.10;;;12.70;82.10;;;11.29;90.88;95764.91;4858299;28;20634;-66
2022/05/03 01:24:08;;;;;;;12.93;11.60;;;12.60;82.20;;;11.25;91.89;95763.69;4851095;28;20538;-66
2022/05/03 01:27:30;;;;;;;22.65;12.32;;;12.60;82.40;;;11.20;92.65;95771.38;4858946;28;20342;-67
2022/05/03 01:29:58;;;;;;;13.55;12.13;;;12.60;82.50;;;11.15;91.70;95773.81;4864865;28;20293;-65
2022/05/03 01:32:24;;;;;;;14.40;11.75;;;12.50;82.70;;;11.14;91.60;95769.56;4842061;28;20432;-67
2022/05/03 01:34:50;;;;;;;16.65;12.80;;;12.50;82.80;;;11.11;92.08;95767.34;4861763;28;20357;-66
2022/05/03 01:37:39;;;;;;;13.48;11.77;;;12.50;83.00;;;11.10;93.49;95760.44;4850026;28;20383;-66
2022/05/03 01:40:12;;;;;;;16.00;12.88;;;12.50;83.10;;;11.07;92.39;95766.09;4856253;28;20380;-67
2022/05/03 01:43:20;;;;;;;13.57;12.27;;;12.50;83.00;;;11.03;94.32;95755.97;4857525;28;20507;-66
2022/05/03 01:46:15;;;;;;;15.35;12.25;;;12.40;83.10;;;10.98;94.15;95750.50;4861601;28;20575;-66
2022/05/03 01:52:25;;;;;;;15.82;12.75;;;12.40;83.30;;;10.94;93.24;95761.63;4854394;28;20499;-65
2022/05/03 01:56:04;;;;;;;13.73;12.15;;;12.30;83.40;;;10.93;93.92;95766.06;4834402;28;20415;-65
2022/05/03 01:59:10;;;;;;;14.23;12.73;;;12.30;83.40;;;10.92;94.41;95767.09;4818747;29;20546;-66
2022/05/03 02:02:19;;;;;;;15.40;13.70;;;12.40;83.20;;;10.92;94.17;95758.38;4841258;28;20637;-66
2022/05/03 02:05:14;;;;;;;16.35;13.13;;;12.40;83.30;;;10.91;94.80;95757.56;4845499;28;20471;-65
2022/05/03 02:07:57;;;;;;;13.82;12.43;;;12.40;83.50;;;10.91;93.91;95762.84;4813200;28;20325;-65
2022/05/03 02:11:09;;;;;;;14.55;13.05;;;12.40;83.40;;;10.91;95.08;95762.03;4826545;28;20544;-66
2022/05/03 02:16:58;;;;;;;14.38;12.80;;;12.30;83.60;;;10.89;94.23;95764.84;4846473;28;20358;-65
2022/05/03 02:20:08;;;;;;;14.35;12.95;;;12.40;83.40;;;10.86;94.36;95765.22;4841487;28;20447;-64
2022/05/03 02:22:45;;;;;;;27.75;24.88;;;12.30;83.40;;;10.85;94.03;95768.88;4856657;28;20354;-65
2022/05/03 02:25:42;;;;;;;17.55;15.75;;;12.30;83.40;;;10.84;94.39;95767.25;4854225;28;20363;-66
2022/05/03 02:28:56;;;;;;;18.38;16.55;;;12.30;83.20;;;10.84;95.50;95766.44;4862233;28;20378;-66
2022/05/03 02:31:32;;;;;;;16.80;13.77;;;12.30;83.30;;;10.81;93.93;95758.94;4848974;28;20329;-66
2022/05/03 02:34:14;;;;;;;18.38;16.38;;;12.20;83.60;;;10.80;94.73;95759.97;4863610;28;20434;-66
2022/05/03 02:36:47;;;;;;;23.58;21.08;;;12.20;83.60;;;10.78;94.73;95762.78;4849666;28;20372;-66
2022/05/03 02:39:13;;;;;;;25.17;20.13;;;12.20;83.70;;;10.78;93.27;95760.16;4838932;28;20578;-66
2022/05/03 02:41:40;;;;;;;17.42;15.63;;;12.30;83.80;;;10.77;94.62;95758.53;4850199;28;20560;-66
2022/05/03 02:44:06;;;;;;;14.95;13.35;;;12.30;83.80;;;10.78;94.88;95760.16;4850622;28;20447;-66
2022/05/03 02:46:54;;;;;;;13.80;12.35;;;12.30;83.90;;;10.77;96.41;95761.16;4843589;28;20373;-65
2022/05/03 02:49:30;;;;;;;13.88;12.15;;;12.20;83.90;;;10.78;95.36;95762.78;4861114;28;20392;-66
2022/05/03 02:52:11;;;;;;;13.43;12.02;;;12.20;83.90;;;10.78;95.41;95757.53;4866629;28;20220;-66
2022/05/03 02:54:48;;;;;;;13.80;11.50;;;12.30;83.80;;;10.78;95.92;95757.53;4832199;28;20214;-65
2022/05/03 02:57:31;;;;;;;12.82;11.57;;;12.20;83.90;;;10.78;95.10;95757.53;4841791;28;20357;-68
2022/05/03 03:03:21;;;;;;;12.43;11.18;;;12.30;83.80;;;10.80;96.11;95758.13;4848257;28;20395;-66
2022/05/03 03:05:59;;;;;;;13.05;11.70;;;12.30;83.90;;;10.80;95.29;95765.22;4849292;28;20305;-67
2022/05/03 03:08:27;;;;;;;13.48;12.07;;;12.20;83.80;;;10.78;94.31;95762.78;4847885;28;20321;-65
2022/05/03 03:11:08;;;;;;;17.25;15.50;;;12.20;84.00;;;10.80;95.58;95758.13;4816122;29;20304;-66
2022/05/03 03:13:51;;;;;;;26.35;23.58;;;12.20;83.90;;;10.83;95.67;95760.38;4822386;28;20293;-67
2022/05/03 03:16:31;;;;;;;56.85;43.67;;;12.30;83.90;;;10.80;95.65;95752.88;4839317;28;20441;-66
2022/05/03 03:18:58;;;;;;;52.00;45.30;;;12.20;83.70;;;10.79;94.41;95751.25;4839873;28;20329;-66
2022/05/03 03:21:32;;;;;;;20.88;17.73;;;12.20;83.90;;;10.78;95.14;95752.25;4832506;28;20214;-67
2022/05/03 03:24:00;;;;;;;15.32;13.82;;;12.20;84.00;;;10.77;94.85;95755.09;4799384;29;20595;-67
2022/05/03 03:26:31;;;;;;;14.00;12.60;;;12.20;83.80;;;10.76;94.33;95754.28;4828498;28;20355;-67
2022/05/03 03:29:02;;;;;;;13.20;11.73;;;12.10;83.70;;;10.74;94.75;95753.69;4839333;28;20244;-67
2022/05/03 03:31:28;;;;;;;13.40;12.00;;;12.10;83.70;;;10.70;94.95;95755.09;4871941;28;20646;-66
2022/05/03 03:33:54;;;;;;;14.20;11.77;;;12.10;83.80;;;10.68;94.84;95757.09;4845728;28;20335;-66
2022/05/03 03:36:22;;;;;;;14.65;13.23;;;12.10;83.60;;;10.67;95.55;95755.50;4831335;28;20440;-66
2022/05/03 03:38:48;;;;;;;31.42;28.02;;;12.10;83.40;;;10.66;94.87;95752.03;4840649;28;20391;-67
2022/05/03 03:41:15;;;;;;;36.83;32.92;;;12.10;83.50;;;10.65;94.75;95757.50;4849442;28;20269;-66
2022/05/03 03:43:41;;;;;;;29.05;25.98;;;12.10;83.50;;;10.63;95.16;95759.50;4816368;28;20852;-66
2022/05/03 03:46:07;;;;;;;62.38;51.47;;;12.10;83.30;;;10.63;95.27;95764.75;4844522;28;20643;-67
2022/05/03 03:48:34;;;;;;;22.52;20.23;;;12.10;83.20;;;10.59;93.73;95758.28;4819874;28;20324;-66
2022/05/03 03:51:00;;;;;;;16.83;14.70;;;12.00;83.20;;;10.55;94.25;95763.13;4831655;28;20351;-67
2022/05/03 03:53:27;;;;;;;16.05;14.23;;;12.00;83.30;;;10.54;94.68;95760.69;4807855;29;20373;-65
2022/05/03 03:55:53;;;;;;;17.80;15.57;;;12.00;83.30;;;10.54;93.79;95776.47;4834844;28;20454;-66
2022/05/03 03:58:19;;;;;;;17.70;15.65;;;12.00;83.20;;;10.51;94.67;95764.53;4853599;28;20672;-66
2022/05/03 04:00:47;;;;;;;18.50;16.65;;;12.00;83.40;;;10.51;93.97;95761.09;4848067;28;20381;-66
2022/05/03 04:03:13;;;;;;;18.38;16.40;;;11.90;83.50;;;10.49;94.03;95769.16;4847246;28;20469;-67
2022/05/03 04:05:44;;;;;;;18.65;16.35;;;11.90;83.60;;;10.45;95.50;95770.56;4846648;28;20332;-66
2022/05/03 04:08:10;;;;;;;18.38;16.63;;;11.90;83.50;;;10.42;94.56;95770.97;4818079;28;20351;-68
2022/05/03 04:10:36;;;;;;;18.73;16.30;;;11.90;83.50;;;10.43;95.16;95769.97;4841361;28;20418;-68
2022/05/03 04:13:02;;;;;;;18.98;17.08;;;12.00;83.50;;;10.43;94.25;95773.41;4820722;28;20679;-68
2022/05/03 04:15:28;;;;;;;18.58;16.50;;;11.90;83.40;;;10.43;95.62;95778.66;4817519;28;20325;-68
2022/05/03 04:17:54;;;;;;;21.00;18.48;;;12.00;83.50;;;10.46;95.30;95779.28;4802128;28;20417;-68
2022/05/03 04:20:20;;;;;;;20.60;18.42;;;12.00;83.40;;;10.48;95.92;95777.25;4815689;28;20505;-67
2022/05/03 04:22:46;;;;;;;23.40;19.92;;;12.00;83.50;;;10.47;95.20;95768.56;4844680;28;20402;-66
2022/05/03 04:25:12;;;;;;;21.63;19.40;;;12.00;83.40;;;10.47;95.17;95776.44;4928858;28;20035;-67
2022/05/03 04:27:39;;;;;;;22.55;19.50;;;12.00;83.40;;;10.48;94.86;95778.06;4979754;28;20061;-65
2022/05/03 04:30:05;;;;;;;22.00;19.77;;;12.00;83.60;;;10.52;95.80;95781.13;4948631;28;20130;-67
2022/05/03 04:32:32;;;;;;;24.48;19.95;;;12.10;83.50;;;10.53;96.02;95773.03;4945338;28;20138;-65
2022/05/03 04:34:58;;;;;;;21.88;18.73;;;12.10;83.50;;;10.52;95.17;95779.28;4963448;28;20189;-65
2022/05/03 04:37:24;;;;;;;22.88;20.38;;;12.10;83.40;;;10.54;95.22;95787.00;4932813;28;20023;-65
2022/05/03 04:39:50;;;;;;;22.02;19.73;;;12.10;83.30;;;10.55;95.98;95788.59;4948888;28;20046;-65
2022/05/03 04:42:16;;;;;;;22.17;19.63;;;12.10;83.20;;;10.53;95.50;95791.44;4945258;28;20234;-65
2022/05/03 04:44:42;;;;;;;28.40;20.00;;;12.10;83.10;;;10.53;94.66;95795.88;4943989;28;20068;-65
2022/05/03 04:47:07;;;;;;;25.77;20.40;;;12.10;83.20;;;10.53;95.74;95790.63;4913817;29;20049;-65
2022/05/03 04:49:33;;;;;;;26.17;21.80;;;12.10;83.30;;;10.54;95.75;95800.13;4897894;29;20086;-65
2022/05/03 04:51:59;;;;;;;23.27;20.88;;;12.10;83.10;;;10.52;95.17;95789.00;4929699;29;20058;-65
2022/05/03 04:54:25;;;;;;;28.08;21.40;;;12.10;83.10;;;10.52;94.67;95794.25;4927395;28;20149;-65
2022/05/03 04:57:01;;;;;;;23.83;21.27;;;12.10;83.10;;;10.53;96.56;95791.44;4945292;28;20035;-65
2022/05/03 04:59:27;;;;;;;24.48;20.77;;;12.10;82.90;;;10.53;95.53;95796.69;4929567;28;20398;-65
2022/05/03 05:01:52;;;;;;;24.83;21.35;;;12.10;83.00;;;10.49;95.83;95792.84;4943527;28;20038;-64
2022/05/03 05:04:18;;;;;;;23.85;21.27;;;12.00;83.20;;;10.46;95.43;95800.31;4945389;28;20692;-65
2022/05/03 05:06:44;;;;;;;24.85;20.98;;;12.00;83.20;;;10.46;95.37;95795.06;4947743;28;20046;-65
2022/05/03 05:09:10;;;;;;;22.02;19.55;;;12.00;83.30;;;10.48;95.23;95798.28;4956171;28;20517;-65
2022/05/03 05:11:36;;;;;;;23.45;19.08;;;12.00;83.10;;;10.46;95.49;95795.06;4925542;28;20125;-65
2022/05/03 05:14:01;;;;;;;22.23;19.30;;;12.10;83.20;;;10.45;95.63;95791.63;4963744;28;20130;-65
2022/05/03 05:16:27;;;;;;;20.88;17.70;;;12.10;83.00;;;10.49;95.14;95802.53;4930178;28;20141;-65
2022/05/03 05:18:53;;;;;;;18.83;16.77;;;12.20;82.60;;;10.54;95.49;95797.50;4945037;28;20038;-65
2022/05/03 05:21:19;;;;;;;16.73;14.27;;;12.20;82.40;;;10.57;95.58;95800.56;4956118;28;20078;-65
2022/05/03 05:23:44;;;;;;;14.93;13.32;;;12.30;81.80;;;10.58;94.57;95799.53;4964485;28;20439;-65
2022/05/03 05:26:11;;;;;;;12.90;11.43;;;12.30;81.30;;;10.63;93.38;95802.38;4899736;28;20106;-65
2022/05/03 05:28:37;;;;;;;11.35;9.65;;;12.40;80.80;;;10.66;93.51;95793.31;4913726;28;20031;-65
2022/05/03 05:31:02;;;;;;;10.30;9.23;;;12.50;80.10;;;10.66;92.65;95796.75;4944984;28;20511;-65
2022/05/03 05:33:28;;;;;;;11.20;9.60;;;12.40;79.90;;;10.69;93.50;95796.38;4929321;28;20039;-65
2022/05/03 05:35:54;;;;;;;12.32;10.00;;;12.50;80.10;;;10.73;91.83;95802.84;4927665;28;20646;-65
2022/05/03 05:38:20;;;;;;;13.65;11.15;;;12.40;79.50;;;10.74;92.50;95791.31;4928127;28;20047;-65
2022/05/03 05:40:46;;;;;;;11.70;10.55;;;12.60;79.90;;;10.82;92.14;95800.03;4912927;29;20041;-65
2022/05/03 05:43:13;;;;;;;12.10;10.80;;;12.70;79.70;;;10.85;92.91;95802.25;4928813;28;20031;-65
2022/05/03 05:45:40;;;;;;;20.38;17.27;;;12.70;80.00;;;10.93;93.15;95802.91;4943098;28;20039;-65
2022/05/03 05:48:08;;;;;;;16.67;14.85;;;12.80;79.70;;;11.00;92.59;95809.00;4913037;28;20035;-65
2022/05/03 05:50:34;;;;;;;13.90;12.50;;;12.90;79.50;;;11.00;91.68;95811.63;4947503;28;20058;-65
2022/05/03 05:55:45;;;;;;;12.30;11.05;;;13.00;78.50;;;11.10;91.00;95813.09;4963812;28;20495;-64
2022/05/03 05:58:11;;;;;;;13.00;10.43;;;13.00;78.90;;;11.18;90.99;95810.25;4946974;28;20124;-64
2022/05/03 06:00:36;;;;;;;11.57;9.82;;;13.10;78.50;;;11.22;91.36;95814.94;4944924;28;20130;-65
2022/05/03 06:03:02;;;;;;;10.20;9.20;;;13.10;77.50;;;11.26;90.53;95817.97;4944846;28;20062;-65
2022/05/03 06:05:30;;;;;;;10.02;9.00;;;13.10;77.90;;;11.28;90.47;95815.94;4911281;29;20122;-65
2022/05/03 06:07:56;;;;;;;9.65;8.65;;;13.10;77.20;;;11.31;90.39;95820.81;4924452;28;20137;-65
2022/05/03 06:10:23;;;;;;;9.45;8.52;;;13.10;77.60;;;11.39;89.78;95817.19;4896429;28;20039;-65
2022/05/03 06:12:49;;;;;;;10.13;8.63;;;13.40;77.00;;;11.45;89.30;95819.81;4928697;28;20035;-65
2022/05/03 06:15:15;;;;;;;8.50;7.32;;;13.50;76.80;;;11.53;89.47;95821.44;4926732;28;20118;-65
2022/05/03 06:17:41;;;;;;;8.25;7.43;;;13.60;75.90;;;11.63;89.07;95825.31;4943557;28;20129;-65
2022/05/03 06:20:08;;;;;;;9.05;8.15;;;13.70;76.20;;;11.74;89.21;95820.44;4929212;28;20130;-65
2022/05/03 06:22:34;;;;;;;9.02;7.63;;;13.90;76.10;;;11.86;88.96;95824.13;4911756;29;20039;-65
2022/05/03 06:25:00;;;;;;;8.10;7.30;;;14.00;75.70;;;11.94;88.11;95827.34;4951032;28;20085;-65
2022/05/03 06:27:26;;;;;;;8.18;7.30;;;14.10;74.50;;;12.02;87.67;95822.91;4965185;28;20113;-65
2022/05/03 06:29:51;;;;;;;7.47;6.85;;;14.20;74.40;;;12.14;87.65;95834.44;4948414;28;20168;-65
2022/05/03 06:32:17;;;;;;;8.25;7.45;;;14.40;74.20;;;12.26;87.50;95825.72;4963404;28;20125;-65
2022/05/03 06:34:43;;;;;;;8.80;7.90;;;14.70;74.00;;;12.43;88.38;95830.53;4961841;28;20065;-65
2022/05/03 06:37:08;;;;;;;8.43;7.63;;;14.90;74.70;;;12.57;88.87;95832.13;4964043;28;20090;-65
2022/05/03 06:39:37;;;;;;;9.75;8.80;;;15.00;75.00;;;12.75;88.76;95832.28;4963174;28;20846;-66
2022/05/03 06:42:05;;;;;;;9.70;8.70;;;15.20;74.50;;;12.87;88.10;95838.50;4947341;28;20032;-65
2022/05/03 06:44:31;;;;;;;8.70;7.80;;;15.20;73.70;;;12.99;87.66;95833.38;4961098;28;20063;-67
2022/05/03 06:46:56;;;;;;;8.80;7.85;;;15.40;73.30;;;13.14;87.95;95835.78;4947515;28;20607;-65
2022/05/03 06:49:22;;;;;;;7.07;6.38;;;15.70;72.80;;;13.29;86.29;95836.31;4947351;28;20458;-66
2022/05/03 06:51:49;;;;;;;8.77;6.40;;;15.80;71.40;;;13.42;85.94;95841.53;4938428;28;20522;-67
2022/05/03 06:54:15;;;;;;;7.10;5.68;;;15.80;70.30;;;13.54;85.53;95849.56;4961284;28;20047;-66
2022/05/03 06:56:41;;;;;;;6.82;5.40;;;16.00;70.20;;;13.66;84.68;95847.06;4950612;28;20153;-66
2022/05/03 06:59:07;;;;;;;5.72;4.82;;;16.10;70.00;;;13.73;83.09;95842.53;4950495;28;20043;-66
2022/05/03 07:01:33;;;;;;;5.85;5.25;;;16.10;67.80;;;13.80;81.69;95845.91;4950661;28;20066;-66
2022/05/03 07:03:59;;;;;;;8.88;5.18;;;16.20;68.30;;;13.91;82.40;95855.81;4931397;28;20132;-66
2022/05/03 07:06:24;;;;;;;5.80;4.70;;;16.40;69.10;;;14.03;81.66;95851.47;4943692;28;20062;-66
2022/05/03 07:08:50;;;;;;;8.88;4.95;;;16.60;68.40;;;14.17;81.79;95851.34;4966500;28;20031;-66
2022/05/03 07:11:16;;;;;;;5.68;5.00;;;16.80;67.90;;;14.35;82.32;95851.38;4958251;28;20085;-66
2022/05/03 07:13:43;;;;;;;6.45;4.68;;;17.30;66.20;;;14.58;80.35;95848.94;4948114;28;20047;-67
2022/05/03 07:16:08;;;;;;;5.85;5.25;;;18.10;63.60;;;14.82;80.50;95841.94;4934610;28;20059;-66
2022/05/03 07:24:04;;;;;;;13.73;11.85;;;19.00;59.30;;;15.49;76.80;95847.19;4966023;28;20572;-67
2022/05/03 07:26:30;;;;;;;13.10;9.93;;;19.10;58.00;;;15.67;76.11;95833.91;4932546;28;20031;-66
2022/05/03 07:28:56;;;;;;;5.95;5.35;;;19.40;57.30;;;15.90;76.28;95838.47;4950341;28;20086;-67
2022/05/03 07:31:22;;;;;;;7.03;5.60;;;19.70;58.10;;;16.11;74.75;95840.56;4965960;28;20030;-66
2022/05/03 07:33:48;;;;;;;6.57;5.20;;;19.80;56.90;;;16.22;73.53;95846.91;4965799;28;20106;-67
2022/05/03 07:36:14;;;;;;;5.80;5.05;;;19.80;54.30;;;16.41;72.92;95845.75;4964519;28;20066;-66
2022/05/03 07:38:40;;;;;;;7.25;5.43;;;20.40;54.50;;;16.63;71.94;95847.81;4949773;28;20042;-66
2022/05/03 07:41:07;;;;;;;7.25;5.53;;;20.50;54.30;;;16.77;71.10;95844.72;4934103;28;20132;-67
2022/05/03 07:43:33;;;;;;;6.55;5.60;;;20.30;54.40;;;16.97;71.19;95846.16;4951590;28;20047;-66
2022/05/03 07:46:00;;;;;;;5.78;5.18;;;21.10;52.70;;;17.21;70.33;95841.63;4938836;28;20046;-66
2022/05/03 07:48:25;;;;;;;7.03;5.30;;;21.50;51.60;;;17.44;70.04;95841.53;4930025;28;20054;-66
2022/05/03 07:50:51;;;;;;;5.43;4.78;;;21.60;51.20;;;17.67;68.35;95844.09;4948360;28;20462;-66
2022/05/03 07:53:17;;;;;;;6.68;4.80;;;21.90;49.10;;;17.89;67.52;95846.06;4965761;28;20117;-66
2022/05/03 07:55:47;;;;;;;6.05;4.80;;;21.90;49.90;;;18.11;66.10;95846.97;4945672;28;20353;-66
2022/05/03 07:58:18;;;;;;;5.70;5.10;;;22.20;49.00;;;18.39;66.27;95845.25;4946780;28;20042;-66
2022/05/03 08:00:44;;;;;;;5.13;4.63;;;22.60;48.90;;;18.60;65.05;95850.63;4948698;28;20043;-66
2022/05/03 08:03:09;;;;;;;5.55;4.82;;;22.10;48.60;;;18.67;65.08;95851.28;4933460;28;20409;-65
2022/05/03 08:05:35;;;;;;;5.47;4.78;;;22.10;48.70;;;18.73;64.51;95857.47;4948468;28;20031;-66
2022/05/03 08:08:01;;;;;;;5.53;5.03;;;21.80;49.60;;;18.67;63.79;95847.81;4949352;28;20042;-66
2022/05/03 08:10:27;;;;;;;5.80;5.20;;;21.60;50.70;;;18.61;63.68;95848.75;4964992;28;20121;-66
2022/05/03 08:12:53;;;;;;;6.38;5.22;;;21.30;50.80;;;18.57;63.77;95852.97;4947932;28;20157;-66
2022/05/03 08:15:19;;;;;;;6.25;5.50;;;21.20;52.20;;;18.51;62.75;95857.41;4945069;28;20063;-66
2022/05/03 08:17:45;;;;;;;6.40;5.80;;;21.10;51.60;;;18.49;63.53;95864.81;4930252;28;20050;-66
2022/05/03 08:20:13;;;;;;;6.20;5.57;;;21.10;52.20;;;18.44;63.60;95862.09;4945477;28;20043;-66
2022/05/03 08:22:39;;;;;;;6.88;5.22;;;21.10;52.70;;;18.49;62.94;95864.03;4938673;28;20036;-66
2022/05/03 08:25:06;;;;;;;7.15;5.72;;;21.70;50.90;;;18.68;63.13;95860.06;4929371;28;20035;-67
2022/05/03 08:27:33;;;;;;;7.68;6.15;;;22.20;50.60;;;18.92;64.64;95865.97;4945574;28;20035;-66
2022/05/03 08:29:59;;;;;;;7.40;6.50;;;22.60;50.50;;;19.10;64.59;95868.34;4941349;28;20347;-64
2022/05/03 08:32:25;;;;;;;7.90;7.10;;;22.60;51.90;;;19.28;63.59;95872.56;4927632;28;20134;-65
2022/05/03 08:34:51;;;;;;;8.25;7.35;;;22.60;51.40;;;19.35;63.10;95880.38;4948069;28;20043;-64
2022/05/03 08:42:46;;;;;;;8.95;8.02;;;23.50;50.40;;;19.97;62.92;95867.44;4963636;28;20045;-64
2022/05/03 08:45:12;;;;;;;9.35;8.40;;;24.00;47.80;;;20.18;62.02;95869.22;4944538;28;20118;-65
2022/05/03 08:47:38;;;;;;;8.90;7.70;;;24.20;46.90;;;20.49;61.73;95869.47;4928543;28;20134;-64
2022/05/03 08:50:04;;;;;;;8.38;7.57;;;24.80;45.80;;;20.82;61.22;95875.56;4945359;28;20521;-65
2022/05/03 08:52:33;;;;;;;8.13;7.30;;;25.20;44.70;;;21.06;59.42;95864.22;4959314;28;20031;-64
2022/05/03 08:55:02;;;;;;;8.75;7.72;;;25.50;44.20;;;21.40;59.36;95863.84;4944537;28;20122;-64
2022/05/03 08:57:28;;;;;;;8.90;7.57;;;25.70;45.30;;;21.70;60.20;95871.13;4944896;28;20031;-64
2022/05/03 08:59:54;;;;;;;8.30;6.68;;;26.10;45.10;;;22.05;59.52;95869.63;4943950;28;20385;-65
2022/05/03 09:02:19;;;;;;;7.25;6.57;;;26.50;43.70;;;22.41;58.27;95865.88;4944147;28;20298;-65
2022/05/03 09:04:46;;;;;;;9.07;7.75;;;26.90;43.00;;;22.72;57.36;95863.16;4944094;28;20598;-65
2022/05/03 09:07:24;;;;;;;10.10;8.00;;;27.10;41.80;;;23.16;56.01;95863.34;4933885;28;20035;-65
2022/05/03 09:09:51;;;;;;;10.88;8.95;;;27.80;42.10;;;23.51;56.55;95854.31;4941916;28;20038;-65
2022/05/03 09:12:29;;;;;;;9.68;8.32;;;27.80;41.70;;;23.80;53.38;95857.13;4947318;28;20035;-65
2022/05/03 09:15:00;;;;;;;8.80;7.65;;;28.10;40.10;;;24.02;52.60;95848.66;4946289;28;20066;-65
2022/05/03 09:17:45;;;;;;;11.68;8.55;;;28.00;39.50;;;24.11;51.33;95857.72;4927576;28;20035;-65
2022/05/03 09:26:25;;;;;;;8.00;7.28;;;27.00;41.00;;;23.75;49.32;95863.31;4925367;28;20156;-66
2022/05/03 09:29:08;;;;;;;7.95;6.82;;;26.50;40.90;;;23.61;50.13;95859.66;4925115;28;20151;-66
2022/05/03 09:31:43;;;;;;;8.13;7.40;;;26.50;41.90;;;23.52;52.53;95856.72;4956056;28;20039;-66
2022/05/03 09:34:27;;;;;;;7.15;6.45;;;26.30;41.80;;;23.44;49.63;95859.19;4963031;28;20089;-66
2022/05/03 09:37:00;;;;;;;8.00;7.20;;;26.50;41.70;;;23.35;50.58;95853.59;4915326;29;20042;-66
2022/05/03 09:39:41;;;;;;;8.95;7.53;;;26.20;42.10;;;23.29;49.80;95856.56;4928144;28;20035;-66
2022/05/03 09:42:14;;;;;;;7.35;6.65;;;26.20;41.90;;;23.25;49.63;95858.19;4908649;29;20039;-66
2022/05/03 09:45:03;;;;;;;8.40;6.50;;;26.30;41.60;;;23.34;49.17;95853.88;4962545;28;20034;-66
2022/05/03 09:47:34;;;;;;;6.38;5.78;;;27.00;40.10;;;23.56;49.87;95857.00;4935494;28;20161;-66
2022/05/03 09:50:00;;;;;;;6.78;5.70;;;27.70;39.70;;;23.81;50.07;95840.75;4927057;28;20134;-66
2022/05/03 09:52:32;;;;;;;6.82;5.53;;;28.20;37.40;;;24.11;48.82;95841.59;4963109;28;20064;-66
2022/05/03 09:55:04;;;;;;;6.68;6.03;;;29.00;37.30;;;24.52;47.75;95852.03;4927861;28;20514;-66
2022/05/03 09:57:31;;;;;;;6.55;5.72;;;29.60;35.60;;;24.85;49.05;95844.97;4944292;28;20495;-66
2022/05/03 09:59:58;;;;;;;6.30;5.70;;;30.00;35.10;;;25.12;48.23;95839.03;4959903;28;20039;-66
2022/05/03 10:02:25;;;;;;;5.80;4.90;;;30.40;33.80;;;25.42;47.39;95837.88;4912167;28;20062;-66
2022/05/03 10:04:53;;;;;;;5.78;5.20;;;30.90;33.60;;;25.71;47.16;95837.78;4943495;28;20090;-67
2022/05/03 10:07:22;;;;;;;5.93;5.32;;;31.30;33.00;;;26.03;44.73;95829.78;4940840;28;20043;-66
2022/05/03 10:09:49;;;;;;;5.43;4.90;;;31.50;32.40;;;26.30;45.67;95836.34;4944791;28;21072;-66
2022/05/03 10:12:15;;;;;;;22.23;11.80;;;31.80;31.50;;;26.57;45.39;95828.34;4944107;28;20335;-67
2022/05/03 10:14:42;;;;;;;16.00;8.68;;;32.20;31.10;;;26.86;44.57;95828.88;4943498;28;20039;-66
2022/05/03 10:22:52;;;;;;;;;;;32.80;30.30;;;27.82;39.14;95821.81;4963791;28;20053;-66
2022/05/03 10:25:49;;;;;;;5.68;3.72;;;33.90;26.30;;;28.21;39.34;95810.34;4946975;28;19922;-66
2022/05/03 10:28:15;;;;;;;6.35;4.25;;;34.10;27.10;;;28.45;41.99;95812.75;4964401;28;20049;-67
2022/05/03 10:31:05;;;;;;;4.18;3.78;;;34.30;26.70;;;28.74;36.21;95810.38;4935061;28;20027;-66
2022/05/03 10:33:31;;;;;;;4.10;3.70;;;34.40;25.50;;;29.06;40.06;95805.75;4967214;28;20122;-67
2022/05/03 10:35:58;;;;;;;3.58;2.95;;;35.00;26.40;;;29.47;38.08;95805.41;4953335;28;20587;-66
2022/05/03 10:38:46;;;;;;;3.67;2.60;;;35.30;24.00;;;29.85;33.90;95800.97;4899232;28;20035;-67
2022/05/03 10:41:22;;;;;;;5.35;2.70;;;35.70;24.60;;;30.11;35.82;95802.91;4925562;28;20039;-67
2022/05/03 10:43:47;;;;;;;2.78;2.45;;;35.50;22.90;;;30.26;35.78;95794.25;4967336;28;20466;-67
2022/05/03 10:46:19;;;;;;;3.10;2.80;;;35.70;24.40;;;30.49;35.27;95792.94;4959475;28;20047;-64
2022/05/03 10:48:45;;;;;;;3.83;3.13;;;35.70;23.30;;;30.67;35.07;95784.78;4947431;28;20110;-67
2022/05/03 10:51:12;;;;;;;5.13;2.85;;;35.80;23.70;;;30.91;34.76;95785.00;4946244;28;20039;-66
2022/05/03 10:53:41;;;;;;;3.05;2.30;;;36.20;24.60;;;31.24;34.82;95792.53;4929561;28;20511;-66
2022/05/03 10:56:18;;;;;;;3.00;2.40;;;36.50;24.40;;;31.53;33.14;95778.91;4945056;28;20050;-64
2022/05/03 10:59:10;;;;;;;2.30;1.90;;;36.70;24.10;;;31.79;31.62;95777.97;4964138;28;20043;-67
2022/05/03 11:01:57;;;;;;;2.97;2.28;;;36.70;24.00;;;32.13;30.65;95782.28;4942599;28;20492;-65
2022/05/03 11:04:24;;;;;;;3.72;2.47;;;37.10;22.80;;;32.27;33.38;95772.72;4976203;28;20518;-65
2022/05/03 11:06:50;;;;;;;3.47;2.63;;;37.40;22.60;;;32.55;32.95;95766.66;4930355;28;20062;-65
2022/05/03 11:09:30;;;;;;;3.80;2.38;;;37.60;22.70;;;32.83;31.14;95764.94;4931114;28;20477;-67
2022/05/03 11:11:58;;;;;;;3.13;2.40;;;38.00;24.10;;;33.07;31.67;95757.91;4946808;28;20049;-64